Bienvenidos al Sitio de AASANA BOLIVIA
Aeropuerto: Internaciónal El Alto
HORA UTC 14:00
08°C
Humedad: 65%

Fecha: 25/04/2018


Sin Fenómeno
ESTACIÓN:SLLP
LATITUD|LONGITUD:16-08S|68-10W
HORA UTC:14:00
DESCRIPCIÓN: SLLP 251400Z 23004KT 9999 SCT013 BKN200 08/02 Q1042 A3079 631.2 P93XX AC HR65 NOSIG=
Regional La Paz
EstaciónAerodromoSit. GeograficaDescripción
SLAPApolo14-44S-68-24W
SLCNCharaña17-35S-69-25W
SLSBSan Borja14-51S-66-44W SLSB 251400Z 00000KT 9999 NSC 29/25 Q1013 A2994 HR79 RWY HUM OPR C402=
SLUYUyuni20-27S-62-52W SLUY 251400Z 17003KT 9999 FEW018 SCT200 11/03 Q1039 A3069 661.9 HR57=
SLOROruro17-57S-67-04W SLOR 251400Z 34006KT 9999 FEW015 11/02 Q1039 A3068 658.7 HR54 AC/CI=
SLRQRurrenabaque14-25S-67-29W SLRQ 251400Z 00000KT 9999 FEW016 30/25 Q1013 A2992 HR76 AC=
SLRYReyes14-18S-67-21W SLRY 251400Z 00000KT 9999 FEW015 29/24 Q1013 A2994 HR76 RWY NML=
SLLPInternaciónal El Alto16-08S-68-10W SLLP 251400Z 23004KT 9999 SCT013 BKN200 08/02 Q1042 A3079 631.2 P93XX AC HR65 NOSIG=
Regional Cochabamba
EstaciónAerodromoSit. GeograficaDescripción
SLVMVillamontes21-15S-63-24W SLVM 251400Z 15003KT 9999 FEW023 26/22 Q1017 A3005 HR81=
SLBJBermejo22-46S-64-18W SLBJ 072000Z 18004KT 9999 SCT025 FEW025TCU BKN200 31/26 Q1004 A2965 HR71 TCU/N/NE/NW=
SLAGMonteagudo19-49S-63-58W SLAG 251400Z 18003KT 9999 FEW023 26/19 Q1022 A3020 HR65 CI=
SLYAYacuiba21-57S-63-39W SLYA 251400Z 36006KT 9999 SCT020 27/24 Q1018 A3008 HR81= SABO SLLP 251400
SLHIChimore16-58S-65-09W SLHI 241900Z 35003KT 9999 FEW017 SCT200 31/24 Q1013 A2993 986.1 HR68 AC=
SLPOPotosí19-32S-65-43W SLPO 251400Z 24003KT 9999 NSC 11/06 Q1043 A3080 HR72 CI=
SLTJTarija21-33S-64-42W SLTJ 251400Z 00000KT 9999 FEW025 23/15 Q1025 A3027 HR61 CI=
SLALAlcantari19-14S-65-09W SLAL 251400Z 25006KT 9999 FEW013 13/08 Q1034 A3054 HR70=
SLCBCochabamba17-25S-66-10W SLCB 251400Z 00000KT 9999 FEW027 19/09 Q1031 A3046 756.3 HR52 FU NOSIG=
Regional Santa Cruz
EstaciónAerodromoSit. GeograficaDescripción
SLASAscención de Guarayos15-55S-63-09W SLAS 251400Z 00000KT 9999 NSC 26/25 Q1018 A3006 HR92 REFG RWY NML=
SLSISan Ignacio de Velasco16-23S-60-57W SLSI 251400Z 00000KT 9999 NSC 29/22 Q1017 A3003 HR66 RWY NML=
SLJVSan Javier16-16S-62-28W SLJV 251400Z 00000KT 9999 NSC 28/22 Q1016 A3000 HR68 RWY NML=
SLPSPuerto Suárez18-58S-57-49W SLPS 251400Z 00000KT 9999 NSC 30/25 Q1016 A3001 HR76=
SLETEl Trompillo17-48S-63-10W SLET 251400Z 29005KT 9999 FEW012 SCT200 28/23 Q1017 A3004 HR73 FU NOSIG=
SLCPConcepción16-08S-62-01W SLCP 251400Z 02004KT 9999 NSC 27/23 Q1020 A3012 HR78 RWY NML=
SLRBRoboré18-19S-59-45W SLRB 251400Z 00000KT 9999 NSC 27/24 Q1020 A3012 HR81 RWY NML=
SLCACamiri20-00S-63-31W SLCA 251400Z 00000KT 9999 NSC 23/21 Q1021 A3015 HR85 RWY NML=
SLJESan José de Chiquitos17-49S-60-44W SLJE 251400Z 00000KT 9999 NSC 30/21 Q1020 A3013 HR58 RWY NML=
SLVRInternaciónal Viru Viru17-38S-63-08W SLVR 251400Z 03004KT 9999 FEW017 27/23 Q1017 A3005 HR80 CI NOSIG=
SLTISan Matías16-20S-58-24W SLTI 251400Z 00000KT 9999 NSC 29/25 Q1017 A3003 HR79 RWY NML=
SLVGValle Grande18-28S-64-05W SLVG 251400Z 00000KT 9999 FEW023 19/15 Q1028 A3036 HR74 RWY NML =
Regional Beni
EstaciónAerodromoSit. GeograficaDescripción
SLCOCobija11-02S-68-47W SLCO 251400Z 27004KT 9999 BKN006 BKN080 26/24 Q1017 A3004 989.6 HR91=
SLBUBaures13-39S-63-42W SLBU 251300Z 00000KT 9999 NSC 28/25 Q1014 A2997 HR83 CI RWY NML=
SLSMSan Ignacio de Moxos14-57S-65-38W SLSM 251300Z 00000KT 9999 BKN008 BKN200 24/24 Q1015 A2998 HR98 RWY WET INOP=
SLGMGuayaramerín10-53S-65-23W SLGM 251400Z 00000KT 9999 FEW008 BKN080 28/25 Q1016 A3001 HR83=
SLJOSan Joaquin13-03S-64-39W SLJO 251300Z 00000KT 9999 FEW017 SCT200 27/25 Q1015 A2999 HR87 RWY OPR C210=
SLRASan Ramón13-15S-64-36W SLRA 251300Z 14006KT 9999 NSC 28/25 Q1015 A2999 HR84 CI RWY HUM OPR=
SLSASanta Ana de Yacuma13-45S-65-26W SLSA 251300Z 00000KT 9999 FEW010 SCT200 28/24 Q1015 A2998 HR79=
SLMGSan Magdalena13-15S-64-36W SLMG 251300Z 12004KT 9999 NSC 27/25 Q1014 A2997 HR85 CI RWY NML=
SLRIRiberalta11-00S-66-04W SLRI 251400Z 00000KT 9999 FEW010 BKN080 27/24 Q1016 A3003 HR86=
SLTRTrinidad14-49S-64-54W SLTR 251400Z 11003KT 9999 NSC 29/24 Q1016 A3001 997.7 HR75 NOSIG=
SLSRSanta Rosa14-04S-66-47W SLSR 251300Z 00000KT 9999 FEW012 SCT080 26/24 Q1015 A3000 HR88 RWY NML=